Time;durP1;ratioP1;P1;durP2;ratioP2;P2;SDS_P1;SDS_P2;PMS_P1;PMS_P2;Temp;Humidity;BMP_temperature;BMP_pressure;BME280_temperature;BME280_humidity;BME280_pressure;Samples;Min_cycle;Max_cycle;Signal;HPM_P1;HPM_P2
2022/09/30 00:01:51;;;;;;;4.55;3.03;;;;;;;;;;4333343;33;20269;-89
2022/09/30 00:04:20;;;;;;;6.57;4.30;;;;;;;;;;4333486;33;20215;-90
2022/09/30 00:06:47;;;;;;;7.90;3.80;;;;;;;;;;4332891;33;20308;-89
2022/09/30 00:09:15;;;;;;;6.93;3.83;;;;;;;;;;4333397;33;20260;-88
2022/09/30 00:11:44;;;;;;;7.07;3.90;;;;;;;;;;4333149;33;20241;-88
2022/09/30 00:14:16;;;;;;;3.95;3.35;;;;;;;;;;4333426;33;20199;-89
2022/09/30 00:16:43;;;;;;;6.72;4.35;;;;;;;;;;4333197;33;20219;-88
2022/09/30 00:19:10;;;;;;;5.43;3.70;;;;;;;;;;4332962;33;20225;-88
2022/09/30 00:21:37;;;;;;;11.10;5.55;;;;;;;;;;4332476;33;20357;-89
2022/09/30 00:24:05;;;;;;;12.70;4.28;;;;;;;;;;4333185;33;20211;-88
2022/09/30 00:26:33;;;;;;;8.75;5.12;;;;;;;;;;4332429;33;20256;-89
2022/09/30 00:29:02;;;;;;;10.57;5.62;;;;;;;;;;4333247;33;20222;-88
2022/09/30 00:31:34;;;;;;;7.93;5.50;;;;;;;;;;4333094;33;20701;-89
2022/09/30 00:34:06;;;;;;;8.95;4.87;;;;;;;;;;4332978;33;20229;-88
2022/09/30 00:36:34;;;;;;;6.55;4.53;;;;;;;;;;4333621;33;20282;-88
2022/09/30 00:39:01;;;;;;;8.98;4.07;;;;;;;;;;4332757;33;20223;-88
2022/09/30 00:41:28;;;;;;;10.05;4.95;;;;;;;;;;4333600;33;20246;-88
2022/09/30 00:43:55;;;;;;;8.88;4.65;;;;;;;;;;4333190;33;20225;-88
2022/09/30 00:46:31;;;;;;;9.15;4.07;;;;;;;;;;4332393;33;20285;-88
2022/09/30 00:49:03;;;;;;;7.37;4.78;;;;;;;;;;4332923;33;20225;-88
2022/09/30 00:51:35;;;;;;;10.55;4.82;;;;;;;;;;4332411;33;20222;-88
2022/09/30 00:54:04;;;;;;;6.62;4.90;;;;;;;;;;4332809;33;20237;-89
2022/09/30 00:56:36;;;;;;;9.48;4.72;;;;;;;;;;4332691;33;20535;-88
2022/09/30 00:59:07;;;;;;;7.72;4.87;;;;;;;;;;4332685;33;20241;-88
2022/09/30 01:01:36;;;;;;;6.20;5.32;;;;;;;;;;4332255;33;20245;-88
2022/09/30 01:04:07;;;;;;;9.48;4.75;;;;;;;;;;4332634;33;20238;-88
2022/09/30 01:06:33;;;;;;;11.63;4.68;;;;;;;;;;4332309;33;20223;-88
2022/09/30 01:09:01;;;;;;;14.87;5.72;;;;;;;;;;4332898;33;20203;-89
2022/09/30 01:11:29;;;;;;;15.25;4.87;;;;;;;;;;4332317;33;20636;-88
2022/09/30 01:13:59;;;;;;;6.68;4.55;;;;;;;;;;4332433;33;20588;-89
2022/09/30 01:16:41;;;;;;;8.77;5.07;;;;;;;;;;4332269;33;20219;-88
2022/09/30 01:19:43;;;;;;;10.88;4.68;;;;;;;;;;4332546;33;20273;-88
2022/09/30 01:22:38;;;;;;;7.12;4.60;;;;;;;;;;4293871;33;20223;-89
2022/09/30 01:25:23;;;;;;;7.62;4.12;;;;;;;;;;4330380;33;20298;-89
2022/09/30 01:28:21;;;;;;;15.85;4.18;;;;;;;;;;4332733;33;20229;-89
2022/09/30 01:31:05;;;;;;;10.63;4.70;;;;;;;;;;4292388;33;20239;-89
2022/09/30 01:33:43;;;;;;;6.32;4.45;;;;;;;;;;4334190;33;20494;-88
2022/09/30 01:36:25;;;;;;;5.90;4.20;;;;;;;;;;4331974;33;20575;-88
2022/09/30 01:39:01;;;;;;;8.75;4.37;;;;;;;;;;4333990;33;20207;-86
2022/09/30 01:41:39;;;;;;;5.97;4.72;;;;;;;;;;4334844;33;20711;-89
2022/09/30 01:44:14;;;;;;;10.10;4.70;;;;;;;;;;4334264;33;20199;-86
2022/09/30 01:46:46;;;;;;;6.95;4.45;;;;;;;;;;4333637;33;20215;-89
2022/09/30 01:49:20;;;;;;;6.15;3.78;;;;;;;;;;4332242;33;20225;-89
2022/09/30 01:51:55;;;;;;;6.45;4.15;;;;;;;;;;4331948;33;20257;-89
2022/09/30 01:54:32;;;;;;;13.55;4.25;;;;;;;;;;4332209;33;20206;-89
2022/09/30 01:57:03;;;;;;;5.60;3.55;;;;;;;;;;4333254;33;20244;-89
2022/09/30 01:59:35;;;;;;;10.90;5.28;;;;;;;;;;4334923;33;20210;-89
2022/09/30 02:02:09;;;;;;;11.95;5.15;;;;;;;;;;4334416;33;20249;-89
2022/09/30 02:04:41;;;;;;;10.55;4.87;;;;;;;;;;4335044;33;20210;-89
2022/09/30 02:07:13;;;;;;;6.35;4.68;;;;;;;;;;4334938;33;20293;-89
2022/09/30 02:09:45;;;;;;;6.72;4.57;;;;;;;;;;4335085;33;20215;-89
2022/09/30 02:12:17;;;;;;;6.28;4.50;;;;;;;;;;4335035;33;20200;-88
2022/09/30 02:14:49;;;;;;;9.45;4.22;;;;;;;;;;4334605;33;20225;-88
2022/09/30 02:17:20;;;;;;;5.45;4.20;;;;;;;;;;4334933;33;20203;-88
2022/09/30 02:19:53;;;;;;;10.63;4.80;;;;;;;;;;4334215;33;20511;-88
2022/09/30 02:22:24;;;;;;;9.20;5.93;;;;;;;;;;4334883;33;20199;-88
2022/09/30 02:24:57;;;;;;;11.68;5.68;;;;;;;;;;4334590;33;20210;-88
2022/09/30 02:27:28;;;;;;;10.73;5.28;;;;;;;;;;4334665;33;20203;-88
2022/09/30 02:29:57;;;;;;;13.68;5.07;;;;;;;;;;4334432;33;20691;-88
2022/09/30 02:32:31;;;;;;;7.60;4.05;;;;;;;;;;4334175;33;20223;-88
2022/09/30 02:35:05;;;;;;;4.15;3.45;;;;;;;;;;4334521;33;20226;-88
2022/09/30 02:37:35;;;;;;;8.30;3.92;;;;;;;;;;4334550;33;20217;-88
2022/09/30 02:40:09;;;;;;;10.95;3.97;;;;;;;;;;4334266;33;20203;-88
2022/09/30 02:42:38;;;;;;;10.95;4.00;;;;;;;;;;4334785;33;20194;-88
2022/09/30 02:45:09;;;;;;;9.48;4.50;;;;;;;;;;4334255;33;20245;-88
2022/09/30 02:47:48;;;;;;;11.65;4.87;;;;;;;;;;4334633;33;20254;-88
2022/09/30 02:50:25;;;;;;;7.53;5.60;;;;;;;;;;4334123;33;20245;-88
2022/09/30 02:53:04;;;;;;;18.55;6.68;;;;;;;;;;4334594;33;20658;-88
2022/09/30 02:55:37;;;;;;;12.75;7.07;;;;;;;;;;4334046;33;20674;-88
2022/09/30 02:58:11;;;;;;;7.80;5.57;;;;;;;;;;4334333;33;20225;-87
2022/09/30 03:00:41;;;;;;;10.05;6.70;;;;;;;;;;4333521;33;20728;-88
2022/09/30 03:03:15;;;;;;;11.60;6.68;;;;;;;;;;4333957;33;20312;-87
2022/09/30 03:05:42;;;;;;;8.30;6.62;;;;;;;;;;4333731;33;20681;-88
2022/09/30 03:08:10;;;;;;;15.63;7.00;;;;;;;;;;4333962;33;20212;-86
2022/09/30 03:10:38;;;;;;;13.82;7.37;;;;;;;;;;4333649;33;20246;-87
2022/09/30 03:13:17;;;;;;;14.38;6.95;;;;;;;;;;4334286;33;20219;-87
2022/09/30 03:15:56;;;;;;;9.48;6.68;;;;;;;;;;4333995;33;20223;-88
2022/09/30 03:18:37;;;;;;;18.25;6.50;;;;;;;;;;4334062;33;20205;-88
2022/09/30 03:21:14;;;;;;;14.23;8.20;;;;;;;;;;4333966;33;20652;-88
2022/09/30 03:24:15;;;;;;;19.05;7.35;;;;;;;;;;4334007;33;20228;-88
2022/09/30 03:26:52;;;;;;;8.70;6.28;;;;;;;;;;4333856;33;20236;-88
2022/09/30 03:29:26;;;;;;;12.43;7.00;;;;;;;;;;4333971;33;20270;-88
2022/09/30 03:32:03;;;;;;;14.10;8.15;;;;;;;;;;4333971;33;20321;-88
2022/09/30 03:34:41;;;;;;;17.02;8.85;;;;;;;;;;4333865;33;20635;-88
2022/09/30 03:37:16;;;;;;;28.85;9.20;;;;;;;;;;4333207;33;20577;-87
2022/09/30 03:39:55;;;;;;;26.48;11.25;;;;;;;;;;4333592;33;20252;-88
2022/09/30 03:42:27;;;;;;;16.37;8.95;;;;;;;;;;4333471;33;20230;-88
2022/09/30 03:45:02;;;;;;;15.52;7.43;;;;;;;;;;4333135;33;20209;-88
2022/09/30 03:47:33;;;;;;;15.88;7.62;;;;;;;;;;4333366;33;20221;-88
2022/09/30 03:50:07;;;;;;;22.98;8.15;;;;;;;;;;4333526;33;20334;-88
2022/09/30 03:52:35;;;;;;;17.17;7.65;;;;;;;;;;4333572;33;20208;-88
2022/09/30 03:55:04;;;;;;;18.20;7.40;;;;;;;;;;4333444;33;20215;-88
2022/09/30 03:57:31;;;;;;;11.82;7.75;;;;;;;;;;4333085;33;20584;-89
2022/09/30 03:59:59;;;;;;;12.37;7.00;;;;;;;;;;4333161;33;20292;-88
2022/09/30 04:02:27;;;;;;;12.93;7.57;;;;;;;;;;4333565;33;20253;-87
2022/09/30 04:04:54;;;;;;;17.33;8.57;;;;;;;;;;4333944;33;20266;-88
2022/09/30 04:07:22;;;;;;;11.90;6.97;;;;;;;;;;4333426;33;20204;-88
2022/09/30 04:09:49;;;;;;;18.73;6.55;;;;;;;;;;4333154;33;20274;-88
2022/09/30 04:12:15;;;;;;;12.73;7.28;;;;;;;;;;4333397;33;20199;-88
2022/09/30 04:14:42;;;;;;;8.57;6.50;;;;;;;;;;4333526;33;20629;-88
2022/09/30 04:17:09;;;;;;;10.45;6.72;;;;;;;;;;4333542;33;20274;-88
2022/09/30 04:19:38;;;;;;;9.23;6.95;;;;;;;;;;4334031;33;20290;-88
2022/09/30 04:22:06;;;;;;;13.73;7.37;;;;;;;;;;4333841;33;20557;-88
2022/09/30 04:24:34;;;;;;;7.07;6.37;;;;;;;;;;4334463;33;20226;-88
2022/09/30 04:27:01;;;;;;;12.50;6.65;;;;;;;;;;4333932;33;20219;-88
2022/09/30 04:29:28;;;;;;;11.12;6.35;;;;;;;;;;4341825;33;20556;-86
2022/09/30 04:31:55;;;;;;;16.90;8.60;;;;;;;;;;4345238;33;20208;-85
2022/09/30 04:34:22;;;;;;;18.92;8.23;;;;;;;;;;4345534;33;20211;-86
2022/09/30 04:36:49;;;;;;;17.98;9.45;;;;;;;;;;4345161;33;20349;-85
2022/09/30 04:39:15;;;;;;;12.27;8.30;;;;;;;;;;4341524;33;20290;-88
2022/09/30 04:41:44;;;;;;;9.93;7.20;;;;;;;;;;4332941;33;20281;-89
2022/09/30 04:44:12;;;;;;;14.87;8.23;;;;;;;;;;4333431;33;20229;-89
2022/09/30 04:46:38;;;;;;;13.15;7.62;;;;;;;;;;4333278;33;20373;-88
2022/09/30 04:49:07;;;;;;;13.93;7.68;;;;;;;;;;4332866;33;20211;-89
2022/09/30 04:51:34;;;;;;;14.75;7.72;;;;;;;;;;4331888;33;20566;-88
2022/09/30 04:54:01;;;;;;;12.93;6.43;;;;;;;;;;4332464;33;20218;-89
2022/09/30 04:56:28;;;;;;;9.18;6.43;;;;;;;;;;4331687;33;20261;-89
2022/09/30 04:58:56;;;;;;;9.07;6.43;;;;;;;;;;4332254;33;20225;-89
2022/09/30 05:01:23;;;;;;;10.40;7.57;;;;;;;;;;4331638;33;20319;-88
2022/09/30 05:03:50;;;;;;;9.65;8.07;;;;;;;;;;4331974;33;20322;-89
2022/09/30 05:06:18;;;;;;;10.13;6.55;;;;;;;;;;4331949;33;20246;-89
2022/09/30 05:08:45;;;;;;;13.57;6.12;;;;;;;;;;4333010;33;20265;-89
2022/09/30 05:11:16;;;;;;;13.68;7.22;;;;;;;;;;4332260;33;20639;-88
2022/09/30 05:13:43;;;;;;;7.72;6.25;;;;;;;;;;4332908;33;20279;-88
2022/09/30 05:16:12;;;;;;;10.27;5.45;;;;;;;;;;4332275;33;20239;-89
2022/09/30 05:18:40;;;;;;;7.50;5.43;;;;;;;;;;4332882;33;20199;-88
2022/09/30 05:21:07;;;;;;;7.15;5.30;;;;;;;;;;4332403;33;20232;-90
2022/09/30 05:23:34;;;;;;;9.40;5.03;;;;;;;;;;4332621;33;20274;-89
2022/09/30 05:26:02;;;;;;;8.45;5.12;;;;;;;;;;4331967;33;20238;-89
2022/09/30 05:28:30;;;;;;;12.40;6.03;;;;;;;;;;4332439;33;20309;-90
2022/09/30 05:30:58;;;;;;;5.32;4.82;;;;;;;;;;4333414;33;20215;-88
2022/09/30 05:33:27;;;;;;;7.55;6.07;;;;;;;;;;4335562;33;20224;-88
2022/09/30 05:35:54;;;;;;;8.43;5.68;;;;;;;;;;4334512;33;20257;-90
2022/09/30 05:38:21;;;;;;;8.93;5.25;;;;;;;;;;4334597;33;20532;-89
2022/09/30 05:40:48;;;;;;;15.70;7.60;;;;;;;;;;4336264;33;20219;-89
2022/09/30 05:43:15;;;;;;;73.30;19.58;;;;;;;;;;4336160;33;20235;-90
2022/09/30 05:45:41;;;;;;;55.97;14.77;;;;;;;;;;4335581;33;20556;-90
2022/09/30 05:48:11;;;;;;;41.55;12.65;;;;;;;;;;4336171;33;20195;-88
2022/09/30 05:50:40;;;;;;;18.30;10.27;;;;;;;;;;4338295;33;20286;-89
2022/09/30 05:53:06;;;;;;;27.73;11.55;;;;;;;;;;4335884;33;20203;-89
2022/09/30 05:55:33;;;;;;;17.00;9.52;;;;;;;;;;4335239;33;20227;-89
2022/09/30 05:58:00;;;;;;;22.98;12.37;;;;;;;;;;4335102;33;20288;-89
2022/09/30 06:00:27;;;;;;;17.90;11.23;;;;;;;;;;4334754;33;20552;-89
2022/09/30 06:02:54;;;;;;;15.20;8.65;;;;;;;;;;4335455;33;20595;-89
2022/09/30 06:05:21;;;;;;;14.95;9.18;;;;;;;;;;4335236;33;20317;-89
2022/09/30 06:07:49;;;;;;;13.50;9.70;;;;;;;;;;4335394;33;20222;-89
2022/09/30 06:10:16;;;;;;;18.00;8.98;;;;;;;;;;4335157;33;20311;-89
2022/09/30 06:12:44;;;;;;;8.98;6.60;;;;;;;;;;4335049;33;20235;-89
2022/09/30 06:15:11;;;;;;;9.07;3.92;;;;;;;;;;4334623;33;20223;-89
2022/09/30 06:17:37;;;;;;;9.32;5.97;;;;;;;;;;4334896;33;20231;-90
2022/09/30 06:20:05;;;;;;;8.13;7.18;;;;;;;;;;4334987;33;20219;-89
2022/09/30 06:22:35;;;;;;;20.92;8.88;;;;;;;;;;4334757;33;20699;-90
2022/09/30 06:25:06;;;;;;;11.40;7.68;;;;;;;;;;4335274;33;20337;-90
2022/09/30 06:27:33;;;;;;;23.05;8.20;;;;;;;;;;4335379;33;20294;-90
2022/09/30 06:30:00;;;;;;;11.70;7.65;;;;;;;;;;4334982;33;20703;-90
2022/09/30 06:32:27;;;;;;;9.55;6.87;;;;;;;;;;4334779;33;20282;-91
2022/09/30 06:34:54;;;;;;;10.95;6.82;;;;;;;;;;4334686;33;20203;-90
2022/09/30 06:37:21;;;;;;;11.15;7.68;;;;;;;;;;4335101;33;20277;-92
2022/09/30 06:39:49;;;;;;;11.95;7.37;;;;;;;;;;4334924;33;20227;-90
2022/09/30 06:42:18;;;;;;;12.30;7.22;;;;;;;;;;4334714;33;20262;-90
2022/09/30 06:44:45;;;;;;;10.52;5.80;;;;;;;;;;4334982;33;20624;-90
2022/09/30 06:47:13;;;;;;;6.28;5.30;;;;;;;;;;4334919;33;20575;-91
2022/09/30 06:49:40;;;;;;;16.93;6.50;;;;;;;;;;4334771;33;20204;-91
2022/09/30 06:52:10;;;;;;;9.55;5.05;;;;;;;;;;4334220;33;20230;-91
2022/09/30 06:54:37;;;;;;;14.02;5.87;;;;;;;;;;4334460;33;20659;-91
2022/09/30 06:57:04;;;;;;;8.30;5.37;;;;;;;;;;4333873;33;20697;-90
2022/09/30 06:59:32;;;;;;;11.38;4.72;;;;;;;;;;4334107;33;20295;-90
2022/09/30 07:02:00;;;;;;;12.53;4.90;;;;;;;;;;4335028;33;20243;-89
2022/09/30 07:04:26;;;;;;;6.70;5.10;;;;;;;;;;4335279;33;20196;-90
2022/09/30 07:06:54;;;;;;;9.30;5.35;;;;;;;;;;4334418;33;20241;-90
2022/09/30 07:09:20;;;;;;;11.40;6.28;;;;;;;;;;4335258;33;20286;-90
2022/09/30 07:11:48;;;;;;;11.80;6.32;;;;;;;;;;4335481;33;20219;-89
2022/09/30 07:14:15;;;;;;;9.88;6.30;;;;;;;;;;4335150;33;20514;-90
2022/09/30 07:16:44;;;;;;;7.47;6.10;;;;;;;;;;4335048;33;20360;-90
2022/09/30 07:19:11;;;;;;;11.43;7.25;;;;;;;;;;4334153;33;20270;-89
2022/09/30 07:21:38;;;;;;;7.87;6.43;;;;;;;;;;4334545;33;20635;-90
2022/09/30 07:24:05;;;;;;;11.07;8.80;;;;;;;;;;4334852;33;20245;-91
2022/09/30 07:26:32;;;;;;;9.82;7.93;;;;;;;;;;4334181;33;20244;-90
2022/09/30 07:28:59;;;;;;;12.88;8.57;;;;;;;;;;4333953;33;20246;-90
2022/09/30 07:31:27;;;;;;;8.38;6.87;;;;;;;;;;4333780;33;20207;-90
2022/09/30 07:33:55;;;;;;;12.52;6.68;;;;;;;;;;4333833;33;20285;-90
2022/09/30 07:36:26;;;;;;;10.60;6.85;;;;;;;;;;4333715;33;20629;-92
2022/09/30 07:38:53;;;;;;;14.60;8.15;;;;;;;;;;4334136;33;20253;-89
2022/09/30 07:41:26;;;;;;;9.55;6.97;;;;;;;;;;4334127;33;20298;-90
2022/09/30 07:43:55;;;;;;;12.90;8.02;;;;;;;;;;4334627;33;20631;-90
2022/09/30 07:46:24;;;;;;;13.23;9.45;;;;;;;;;;4333466;33;20241;-89
2022/09/30 07:48:55;;;;;;;14.77;10.13;;;;;;;;;;4334309;33;20513;-90
2022/09/30 07:51:25;;;;;;;11.68;8.45;;;;;;;;;;4333539;33;20239;-90
2022/09/30 07:53:55;;;;;;;13.95;9.45;;;;;;;;;;4333277;33;20215;-90
2022/09/30 07:56:22;;;;;;;9.98;8.40;;;;;;;;;;4334157;33;20560;-89
2022/09/30 07:58:53;;;;;;;9.18;7.30;;;;;;;;;;4333791;33;20210;-90
2022/09/30 08:01:20;;;;;;;19.52;7.60;;;;;;;;;;4333744;33;20227;-90
2022/09/30 08:03:46;;;;;;;9.48;6.15;;;;;;;;;;4333637;33;20290;-90
2022/09/30 08:06:16;;;;;;;10.32;7.47;;;;;;;;;;4333187;33;20351;-90
2022/09/30 08:08:46;;;;;;;21.90;6.00;;;;;;;;;;4332831;33;20215;-91
2022/09/30 08:11:13;;;;;;;6.85;5.57;;;;;;;;;;4333214;33;20298;-90
2022/09/30 08:13:41;;;;;;;9.88;5.55;;;;;;;;;;4333179;33;20282;-90
2022/09/30 08:16:08;;;;;;;5.97;5.15;;;;;;;;;;4333745;33;20661;-90
2022/09/30 08:18:35;;;;;;;8.95;6.22;;;;;;;;;;4334141;33;20331;-90
2022/09/30 08:21:03;;;;;;;9.35;5.62;;;;;;;;;;4333163;33;20219;-90
2022/09/30 08:23:30;;;;;;;9.52;5.85;;;;;;;;;;4333192;33;20727;-90
2022/09/30 08:26:03;;;;;;;6.35;5.72;;;;;;;;;;4332851;33;20222;-91
2022/09/30 08:28:31;;;;;;;7.00;5.57;;;;;;;;;;4332910;33;20649;-90
2022/09/30 08:31:04;;;;;;;10.90;6.60;;;;;;;;;;4333079;33;20234;-91
2022/09/30 08:33:31;;;;;;;11.38;7.32;;;;;;;;;;4332825;33;20292;-90
2022/09/30 08:36:02;;;;;;;15.85;7.80;;;;;;;;;;4332640;33;20219;-90
2022/09/30 08:38:29;;;;;;;8.50;7.00;;;;;;;;;;4332580;33;20640;-90
2022/09/30 08:41:05;;;;;;;13.45;6.70;;;;;;;;;;4332708;33;20269;-90
2022/09/30 08:43:41;;;;;;;25.85;8.95;;;;;;;;;;4332875;33;20212;-90
2022/09/30 08:46:17;;;;;;;10.88;9.13;;;;;;;;;;4332781;33;20310;-91
2022/09/30 08:48:50;;;;;;;18.67;8.38;;;;;;;;;;4332953;33;20272;-91
2022/09/30 08:51:29;;;;;;;14.43;8.80;;;;;;;;;;4332470;33;20208;-91
2022/09/30 08:53:59;;;;;;;18.40;9.10;;;;;;;;;;4332715;33;20207;-92
2022/09/30 08:56:30;;;;;;;9.82;7.15;;;;;;;;;;4332788;33;20216;-90
2022/09/30 08:59:01;;;;;;;12.43;7.30;;;;;;;;;;4332975;33;20208;-92
2022/09/30 09:01:31;;;;;;;12.10;6.72;;;;;;;;;;4332417;33;20220;-90
2022/09/30 09:04:00;;;;;;;11.88;6.40;;;;;;;;;;4333037;33;20602;-89
2022/09/30 09:06:32;;;;;;;9.27;7.37;;;;;;;;;;4332571;33;20215;-90
2022/09/30 09:09:33;;;;;;;11.52;6.62;;;;;;;;;;4333336;33;20229;-90
2022/09/30 09:12:13;;;;;;;13.62;7.07;;;;;;;;;;4302930;33;20596;-91
2022/09/30 09:14:51;;;;;;;12.90;5.10;;;;;;;;;;4334189;33;20199;-91
2022/09/30 09:17:37;;;;;;;7.25;5.68;;;;;;;;;;4333856;33;20237;-91
2022/09/30 09:20:13;;;;;;;9.55;5.57;;;;;;;;;;4333483;33;20313;-91
2022/09/30 09:22:40;;;;;;;14.82;5.53;;;;;;;;;;4333301;33;20198;-92
2022/09/30 09:25:13;;;;;;;10.13;5.55;;;;;;;;;;4333487;33;20219;-91
2022/09/30 09:27:54;;;;;;;10.63;5.18;;;;;;;;;;4334406;33;20207;-91
2022/09/30 09:30:24;;;;;;;6.93;5.25;;;;;;;;;;4334680;33;20278;-91
2022/09/30 09:32:54;;;;;;;13.73;6.62;;;;;;;;;;4334007;33;20310;-92
2022/09/30 09:35:33;;;;;;;20.90;5.80;;;;;;;;;;4332904;33;20237;-91
2022/09/30 09:41:01;;;;;;;9.55;5.78;;;;;;;;;;4333395;33;20234;-92
2022/09/30 09:43:48;;;;;;;15.80;5.47;;;;;;;;;;4333316;33;20573;-91
2022/09/30 09:46:22;;;;;;;9.98;6.10;;;;;;;;;;4332561;33;20241;-92
2022/09/30 09:49:09;;;;;;;11.93;6.00;;;;;;;;;;4333756;33;20203;-91
2022/09/30 09:51:41;;;;;;;8.95;5.70;;;;;;;;;;4335590;33;20223;-91
2022/09/30 09:54:11;;;;;;;12.70;5.07;;;;;;;;;;4337000;33;20614;-92
2022/09/30 09:56:37;;;;;;;20.58;5.82;;;;;;;;;;4333297;33;20219;-92
2022/09/30 09:59:08;;;;;;;8.50;4.57;;;;;;;;;;4332799;33;20223;-91
2022/09/30 10:01:36;;;;;;;6.90;5.00;;;;;;;;;;4333500;33;20246;-92
2022/09/30 10:04:18;;;;;;;8.63;4.55;;;;;;;;;;4339119;33;20317;-91
2022/09/30 10:06:50;;;;;;;9.13;4.97;;;;;;;;;;4344591;33;20265;-91
2022/09/30 10:09:29;;;;;;;11.70;5.22;;;;;;;;;;4339990;33;20286;-91
2022/09/30 10:12:25;;;;;;;10.73;4.20;;;;;;;;;;4333769;33;20262;-90
2022/09/30 10:14:58;;;;;;;12.80;4.20;;;;;;;;;;4334533;33;20300;-90
2022/09/30 10:17:28;;;;;;;6.45;4.15;;;;;;;;;;4334703;33;20231;-91
2022/09/30 10:19:58;;;;;;;4.55;3.28;;;;;;;;;;4336582;33;20227;-91
2022/09/30 10:22:29;;;;;;;10.27;4.97;;;;;;;;;;4336002;33;20223;-91
2022/09/30 10:25:16;;;;;;;7.05;4.57;;;;;;;;;;4335437;33;20196;-91
2022/09/30 10:27:49;;;;;;;18.12;4.03;;;;;;;;;;4335329;33;20274;-91
2022/09/30 10:30:38;;;;;;;8.45;4.65;;;;;;;;;;4335946;33;20334;-92
2022/09/30 10:33:22;;;;;;;5.93;4.22;;;;;;;;;;4335632;33;20227;-90
2022/09/30 10:35:55;;;;;;;11.48;4.07;;;;;;;;;;4334688;33;20230;-92
2022/09/30 10:38:24;;;;;;;19.20;5.25;;;;;;;;;;4343766;33;20233;-92
2022/09/30 10:40:52;;;;;;;10.60;4.60;;;;;;;;;;4344653;33;20219;-91
2022/09/30 10:43:26;;;;;;;12.48;4.47;;;;;;;;;;4345960;33;20176;-92
2022/09/30 10:45:58;;;;;;;18.05;4.95;;;;;;;;;;4339211;33;20289;-91
2022/09/30 10:48:30;;;;;;;10.07;5.30;;;;;;;;;;4342720;33;20207;-91
2022/09/30 10:50:57;;;;;;;17.02;4.12;;;;;;;;;;4346406;33;20269;-92
2022/09/30 10:53:28;;;;;;;19.17;5.57;;;;;;;;;;4335556;33;20211;-92
2022/09/30 10:55:56;;;;;;;17.17;4.80;;;;;;;;;;4335034;33;20219;-92
2022/09/30 10:58:42;;;;;;;14.30;5.97;;;;;;;;;;4334936;33;20323;-93
2022/09/30 11:01:20;;;;;;;12.80;3.75;;;;;;;;;;4334326;33;20651;-93
2022/09/30 11:03:57;;;;;;;8.00;3.97;;;;;;;;;;4334578;33;20203;-93
2022/09/30 11:06:24;;;;;;;11.45;4.18;;;;;;;;;;4334778;33;20230;-92
2022/09/30 11:08:58;;;;;;;8.23;3.97;;;;;;;;;;4334569;33;20270;-91
2022/09/30 11:11:33;;;;;;;9.15;3.53;;;;;;;;;;4334933;33;20269;-91
2022/09/30 11:14:13;;;;;;;16.27;4.65;;;;;;;;;;4334885;33;20231;-91
2022/09/30 11:16:49;;;;;;;5.35;4.15;;;;;;;;;;4334336;33;20262;-91
2022/09/30 11:19:22;;;;;;;6.50;4.28;;;;;;;;;;4334941;33;20270;-92
2022/09/30 11:21:56;;;;;;;8.25;4.30;;;;;;;;;;4333084;33;20673;-92
2022/09/30 11:24:29;;;;;;;5.82;4.10;;;;;;;;;;4334481;33;20290;-91
2022/09/30 11:27:04;;;;;;;6.82;3.72;;;;;;;;;;4335128;33;20227;-91
2022/09/30 11:29:55;;;;;;;6.07;3.03;;;;;;;;;;4334576;33;20214;-91
2022/09/30 11:32:40;;;;;;;10.93;3.15;;;;;;;;;;4334867;33;20219;-92
2022/09/30 11:35:28;;;;;;;12.77;3.50;;;;;;;;;;4334220;33;20305;-92
2022/09/30 11:38:10;;;;;;;6.47;2.20;;;;;;;;;;4334221;33;20219;-93
2022/09/30 11:40:40;;;;;;;3.65;2.67;;;;;;;;;;4334528;33;20214;-92
2022/09/30 11:43:16;;;;;;;8.70;3.10;;;;;;;;;;4334560;33;20637;-93
2022/09/30 11:46:02;;;;;;;9.00;2.67;;;;;;;;;;4333919;33;20317;-93
2022/09/30 11:48:40;;;;;;;6.43;2.62;;;;;;;;;;4334310;33;20231;-92
2022/09/30 11:51:19;;;;;;;5.35;2.47;;;;;;;;;;4334043;33;20258;-92
2022/09/30 11:54:03;;;;;;;3.90;1.83;;;;;;;;;;4334639;33;20226;-92
2022/09/30 11:56:43;;;;;;;6.28;2.15;;;;;;;;;;4334586;33;20254;-92
2022/09/30 11:59:17;;;;;;;4.07;2.00;;;;;;;;;;4334662;33;20264;-91
2022/09/30 12:01:48;;;;;;;5.18;1.95;;;;;;;;;;4333595;33;20286;-91
2022/09/30 12:04:20;;;;;;;12.13;1.85;;;;;;;;;;4333924;33;20665;-92
2022/09/30 12:06:50;;;;;;;4.12;1.95;;;;;;;;;;4333643;33;20688;-92
2022/09/30 12:09:23;;;;;;;3.12;1.95;;;;;;;;;;4334304;33;20211;-93
2022/09/30 12:11:52;;;;;;;6.65;1.60;;;;;;;;;;4334049;33;20302;-92
2022/09/30 12:14:26;;;;;;;6.65;1.50;;;;;;;;;;4334041;33;20207;-92
2022/09/30 12:16:56;;;;;;;3.25;1.60;;;;;;;;;;4334077;33;20226;-93
2022/09/30 12:19:29;;;;;;;5.60;1.80;;;;;;;;;;4333319;33;20227;-93
2022/09/30 12:22:01;;;;;;;3.72;1.60;;;;;;;;;;4334402;33;20644;-92
2022/09/30 12:24:34;;;;;;;4.90;1.90;;;;;;;;;;4334120;33;20231;-92
2022/09/30 12:27:02;;;;;;;2.65;1.62;;;;;;;;;;4334276;33;20246;-93
2022/09/30 12:32:40;;;;;;;4.30;1.80;;;;;;;;;;4333799;33;20237;-92
2022/09/30 12:35:28;;;;;;;5.65;1.90;;;;;;;;;;4337207;33;20247;-92
2022/09/30 12:38:10;;;;;;;5.68;1.90;;;;;;;;;;4340387;33;20233;-92
2022/09/30 12:40:51;;;;;;;2.72;1.52;;;;;;;;;;4336630;33;20223;-92
2022/09/30 12:43:32;;;;;;;6.55;2.10;;;;;;;;;;4337278;33;20608;-92
2022/09/30 12:46:17;;;;;;;4.43;1.73;;;;;;;;;;4336689;33;20219;-91
2022/09/30 12:48:47;;;;;;;6.90;1.62;;;;;;;;;;4335578;33;20593;-91
2022/09/30 12:51:26;;;;;;;12.32;2.20;;;;;;;;;;4334689;33;20381;-91
2022/09/30 12:54:02;;;;;;;3.87;1.98;;;;;;;;;;4334819;33;20853;-92
2022/09/30 12:56:30;;;;;;;6.97;1.90;;;;;;;;;;4333337;33;20269;-92
2022/09/30 12:58:59;;;;;;;5.93;2.15;;;;;;;;;;4333354;33;20240;-92
2022/09/30 13:01:28;;;;;;;4.22;1.55;;;;;;;;;;4334069;33;20338;-92
2022/09/30 13:04:15;;;;;;;6.25;1.40;;;;;;;;;;4333504;33;20195;-91
2022/09/30 13:07:21;;;;;;;2.90;1.62;;;;;;;;;;4332892;33;20245;-92
2022/09/30 13:10:21;;;;;;;4.62;1.67;;;;;;;;;;4332952;33;20636;-91
2022/09/30 13:12:51;;;;;;;5.60;1.50;;;;;;;;;;4333400;33;20216;-92
2022/09/30 13:15:40;;;;;;;2.53;1.40;;;;;;;;;;4337878;33;20231;-92
2022/09/30 13:18:45;;;;;;;3.97;1.80;;;;;;;;;;4335499;33;20295;-92
2022/09/30 13:21:21;;;;;;;4.78;1.58;;;;;;;;;;4338736;33;20241;-91
2022/09/30 13:23:50;;;;;;;17.80;2.00;;;;;;;;;;4344713;33;20207;-89
2022/09/30 13:26:48;;;;;;;4.68;1.60;;;;;;;;;;4348909;33;20255;-87
2022/09/30 13:29:39;;;;;;;3.22;1.92;;;;;;;;;;4348806;33;20306;-92
2022/09/30 13:32:11;;;;;;;4.82;1.85;;;;;;;;;;4348333;33;20211;-90
2022/09/30 13:34:57;;;;;;;5.82;1.62;;;;;;;;;;4337563;33;20253;-92
2022/09/30 13:37:39;;;;;;;6.90;1.55;;;;;;;;;;4334307;33;20270;-92
2022/09/30 13:40:19;;;;;;;3.58;1.60;;;;;;;;;;4333782;33;20238;-93
2022/09/30 13:42:53;;;;;;;7.80;1.90;;;;;;;;;;4334504;33;20549;-91
2022/09/30 13:45:30;;;;;;;5.45;1.55;;;;;;;;;;4333813;33;20222;-92
2022/09/30 13:48:09;;;;;;;3.67;1.60;;;;;;;;;;4334898;33;20231;-92
2022/09/30 13:50:44;;;;;;;5.95;1.45;;;;;;;;;;4337829;33;20257;-91
2022/09/30 13:53:16;;;;;;;5.03;1.83;;;;;;;;;;4335885;33;20244;-92
2022/09/30 13:55:49;;;;;;;9.85;2.42;;;;;;;;;;4335796;33;20236;-93
2022/09/30 13:58:53;;;;;;;3.75;1.83;;;;;;;;;;4336139;33;20207;-93
2022/09/30 14:01:33;;;;;;;6.10;1.83;;;;;;;;;;4340910;33;20215;-92
2022/09/30 14:04:26;;;;;;;2.72;1.30;;;;;;;;;;4345514;33;20207;-93
2022/09/30 14:07:07;;;;;;;8.85;2.30;;;;;;;;;;4344785;33;20211;-92
2022/09/30 14:10:01;;;;;;;6.50;2.17;;;;;;;;;;4342666;33;20289;-91
2022/09/30 14:12:44;;;;;;;9.23;2.35;;;;;;;;;;4342031;33;20203;-92
2022/09/30 14:15:42;;;;;;;6.07;1.58;;;;;;;;;;4336700;33;20237;-92
2022/09/30 14:18:37;;;;;;;9.63;1.73;;;;;;;;;;4335773;33;20293;-92
2022/09/30 14:21:34;;;;;;;11.12;2.00;;;;;;;;;;4335125;33;20241;-91
2022/09/30 14:24:09;;;;;;;4.93;1.80;;;;;;;;;;4335278;33;20199;-91
2022/09/30 14:27:00;;;;;;;5.93;1.50;;;;;;;;;;4336010;33;20633;-92
2022/09/30 14:29:40;;;;;;;9.00;1.95;;;;;;;;;;4335565;33;20203;-93
2022/09/30 14:32:18;;;;;;;3.35;1.58;;;;;;;;;;4334721;33;20616;-92
2022/09/30 14:34:46;;;;;;;11.45;2.22;;;;;;;;;;4335207;33;20210;-92
2022/09/30 14:37:21;;;;;;;4.05;2.00;;;;;;;;;;4335226;33;20302;-92
2022/09/30 14:39:49;;;;;;;3.60;1.52;;;;;;;;;;4336364;33;20282;-91
2022/09/30 14:42:30;;;;;;;17.65;2.20;;;;;;;;;;4335222;33;20286;-92
2022/09/30 14:45:03;;;;;;;8.98;2.33;;;;;;;;;;4334945;33;20290;-91
2022/09/30 14:47:32;;;;;;;4.12;2.03;;;;;;;;;;4336473;33;20245;-90
2022/09/30 14:50:01;;;;;;;4.80;1.60;;;;;;;;;;4338130;33;20203;-91
2022/09/30 14:52:44;;;;;;;7.25;1.90;;;;;;;;;;4335708;33;20227;-91
2022/09/30 14:55:25;;;;;;;3.17;1.75;;;;;;;;;;4335336;33;20279;-91
2022/09/30 14:57:53;;;;;;;6.30;2.03;;;;;;;;;;4335115;33;20221;-92
2022/09/30 15:00:29;;;;;;;5.70;1.77;;;;;;;;;;4334417;33;20698;-91
2022/09/30 15:02:58;;;;;;;3.58;2.45;;;;;;;;;;4334880;33;20219;-92
2022/09/30 15:05:26;;;;;;;4.82;2.17;;;;;;;;;;4335389;33;20385;-92
2022/09/30 15:07:54;;;;;;;5.82;1.85;;;;;;;;;;4334418;33;20561;-91
2022/09/30 15:10:23;;;;;;;11.65;3.72;;;;;;;;;;4335107;33;20241;-92
2022/09/30 15:12:51;;;;;;;6.22;2.95;;;;;;;;;;4334377;33;20203;-93
2022/09/30 15:15:35;;;;;;;10.07;3.08;;;;;;;;;;4334419;33;20698;-90
2022/09/30 15:18:25;;;;;;;10.85;3.15;;;;;;;;;;4335419;33;20241;-92